Time;durP1;ratioP1;P1;durP2;ratioP2;P2;SDS_P1;SDS_P2;PMS_P1;PMS_P2;Temp;Humidity;BMP_temperature;BMP_pressure;BME280_temperature;BME280_humidity;BME280_pressure;Samples;Min_cycle;Max_cycle;Signal;HPM_P1;HPM_P2
2023/11/09 00:00:55;;;;;;;;;;;;;;;14.35;58.21;99782.34;5053692;28;19956;-77
2023/11/09 00:03:20;;;;;;;;;;;;;;;14.26;58.18;99779.84;5053264;28;19978;-75
2023/11/09 00:05:49;;;;;;;;;;;;;;;14.26;58.51;99771.88;5053304;28;19913;-75
2023/11/09 00:08:15;;;;;;;;;;;;;;;14.22;58.32;99772.47;5051711;28;19912;-76
2023/11/09 00:10:40;;;;;;;;;;;;;;;14.26;59.02;99781.69;5035231;28;19913;-76
2023/11/09 00:13:05;;;;;;;;;;;;;;;14.24;58.04;99778.41;5035100;28;20394;-73
2023/11/09 00:15:30;;;;;;;;;;;;;;;14.27;58.64;99781.47;5053151;28;19913;-76
2023/11/09 00:17:56;;;;;;;;;;;;;;;14.26;58.32;99787.81;5035056;28;19913;-76
2023/11/09 00:20:21;;;;;;;;;;;;;;;14.26;58.22;99782.50;5053007;28;19952;-76
2023/11/09 00:22:47;;;;;;;;;;;;;;;14.27;57.66;99785.97;5053085;28;19912;-75
2023/11/09 00:25:13;;;;;;;;;;;;;;;14.21;57.96;99786.75;5053153;28;19920;-76
2023/11/09 00:27:38;;;;;;;;;;;;;;;14.21;58.27;99782.25;5053076;28;19913;-75
2023/11/09 00:30:06;;;;;;;;;;;;;;;14.12;57.49;99786.09;5052867;28;19913;-75
2023/11/09 00:32:31;;;;;;;;;;;;;;;14.09;57.00;99778.47;5052751;28;19917;-75
2023/11/09 00:34:56;;;;;;;;;;;;;;;14.04;57.45;99785.38;5052687;28;20286;-76
2023/11/09 00:37:23;;;;;;;;;;;;;;;13.99;56.75;99781.47;5052648;28;19913;-76
2023/11/09 00:39:48;;;;;;;;;;;;;;;14.02;57.41;99782.94;5052565;28;19912;-76
2023/11/09 00:42:15;;;;;;;;;;;;;;;13.96;57.26;99781.88;5052393;28;19919;-76
2023/11/09 00:44:41;;;;;;;;;;;;;;;13.94;56.84;99781.25;5052282;28;19917;-75
2023/11/09 00:47:06;;;;;;;;;;;;;;;13.92;57.76;99785.94;5052326;28;19966;-76
2023/11/09 00:49:31;;;;;;;;;;;;;;;13.90;57.68;99784.47;5052303;28;20307;-76
2023/11/09 00:51:57;;;;;;;;;;;;;;;13.86;57.50;99791.19;5052252;28;20370;-76
2023/11/09 00:54:22;;;;;;;;;;;;;;;13.85;57.83;99790.38;5052075;28;20003;-75
2023/11/09 00:56:48;;;;;;;;;;;;;;;13.78;57.08;99778.88;5052238;28;19913;-77
2023/11/09 00:59:13;;;;;;;;;;;;;;;13.70;57.10;99783.50;5052287;28;19995;-76
2023/11/09 01:01:38;;;;;;;;;;;;;;;13.63;57.32;99780.81;5052228;28;19913;-76
2023/11/09 01:04:05;;;;;;;;;;;;;;;13.57;57.47;99798.31;5051897;28;19920;-76
2023/11/09 01:06:31;;;;;;;;;;;;;;;13.55;57.79;99791.56;5051865;28;19917;-76
2023/11/09 01:08:57;;;;;;;;;;;;;;;13.56;57.06;99794.03;5052088;28;20001;-76
2023/11/09 01:11:26;;;;;;;;;;;;;;;13.58;57.82;99793.81;5052138;28;20554;-77
2023/11/09 01:13:54;;;;;;;;;;;;;;;13.54;56.99;99790.75;5052036;28;20012;-76
2023/11/09 01:16:19;;;;;;;;;;;;;;;13.55;57.33;99800.34;5051944;28;20313;-76
2023/11/09 01:18:46;;;;;;;;;;;;;;;13.60;57.19;99800.59;5051958;28;19912;-75
2023/11/09 01:21:11;;;;;;;;;;;;;;;13.61;57.32;99801.41;5051853;28;19920;-77
2023/11/09 01:23:36;;;;;;;;;;;;;;;13.64;57.21;99803.69;5051656;28;19913;-76
2023/11/09 01:26:02;;;;;;;;;;;;;;;13.63;57.11;99805.50;5051668;28;19967;-76
2023/11/09 01:28:27;;;;;;;;;;;;;;;13.58;57.20;99807.09;5051725;28;19917;-76
2023/11/09 01:30:52;;;;;;;;;;;;;;;13.54;55.60;99806.66;5051811;28;19913;-75
2023/11/09 01:33:18;;;;;;;;;;;;;;;13.50;56.34;99812.53;5051647;28;19925;-76
2023/11/09 01:35:43;;;;;;;;;;;;;;;13.49;57.10;99817.00;5033739;28;19913;-75
2023/11/09 01:38:08;;;;;;;;;;;;;;;13.48;55.95;99820.69;5051868;28;19920;-76
2023/11/09 01:40:34;;;;;;;;;;;;;;;13.43;56.63;99822.25;5050430;28;19913;-76
2023/11/09 01:42:59;;;;;;;;;;;;;;;13.40;56.35;99830.59;5052154;28;19913;-76
2023/11/09 01:45:25;;;;;;;;;;;;;;;13.38;55.72;99829.94;5051621;28;19913;-76
2023/11/09 01:47:52;;;;;;;;;;;;;;;13.34;55.46;99818.88;5051718;28;19999;-75
2023/11/09 01:50:17;;;;;;;;;;;;;;;13.34;56.24;99826.84;5051624;28;20024;-77
2023/11/09 01:52:42;;;;;;;;;;;;;;;13.31;55.23;99829.88;5051404;28;20457;-76
2023/11/09 01:55:08;;;;;;;;;;;;;;;13.28;56.40;99836.38;5050143;28;19935;-76
2023/11/09 01:57:34;;;;;;;;;;;;;;;13.21;55.34;99835.47;5051556;28;19944;-75
2023/11/09 02:00:00;;;;;;;;;;;;;;;13.13;54.57;99837.38;5050321;28;19913;-76
2023/11/09 02:02:25;;;;;;;;;;;;;;;13.20;55.38;99835.66;5051397;28;19916;-76
2023/11/09 02:04:51;;;;;;;;;;;;;;;13.18;54.51;99835.84;5033551;28;19913;-75
2023/11/09 02:07:16;;;;;;;;;;;;;;;13.19;54.95;99842.78;5051498;28;19920;-77
2023/11/09 02:09:42;;;;;;;;;;;;;;;13.21;55.19;99838.13;5051429;28;19913;-74
2023/11/09 02:12:08;;;;;;;;;;;;;;;13.23;55.49;99833.47;5051216;28;19995;-77
2023/11/09 02:14:34;;;;;;;;;;;;;;;13.27;55.63;99839.22;5051476;28;20008;-77
2023/11/09 02:17:00;;;;;;;;;;;;;;;13.24;54.79;99832.44;5050176;28;19970;-75
2023/11/09 02:19:28;;;;;;;;;;;;;;;13.25;54.91;99836.75;5054153;28;19916;-77
2023/11/09 02:21:55;;;;;;;;;;;;;;;13.24;54.15;99837.75;5055550;28;20283;-76
2023/11/09 02:24:21;;;;;;;;;;;;;;;13.25;54.32;99850.00;5055394;28;19920;-76
2023/11/09 02:26:47;;;;;;;;;;;;;;;13.25;54.91;99860.59;5037378;28;19917;-75
2023/11/09 02:29:14;;;;;;;;;;;;;;;13.24;54.79;99866.91;5055056;28;19978;-76
2023/11/09 02:31:40;;;;;;;;;;;;;;;13.24;55.18;99861.63;5054927;28;19927;-76
2023/11/09 02:34:09;;;;;;;;;;;;;;;13.23;54.77;99869.75;5054818;28;19913;-76
2023/11/09 02:36:34;;;;;;;;;;;;;;;13.28;55.99;99865.53;5037097;28;19948;-76
2023/11/09 02:38:59;;;;;;;;;;;;;;;13.23;54.53;99864.44;5055132;28;19936;-76
2023/11/09 02:41:25;;;;;;;;;;;;;;;13.23;54.70;99862.63;5054876;28;20335;-76
2023/11/09 02:43:50;;;;;;;;;;;;;;;13.05;53.21;99867.47;5054988;28;19909;-75
2023/11/09 02:46:16;;;;;;;;;;;;;;;12.98;54.43;99878.00;5053642;28;20050;-76
2023/11/09 02:48:41;;;;;;;;;;;;;;;12.96;53.93;99872.06;5054713;28;20374;-77
2023/11/09 02:51:06;;;;;;;;;;;;;;;12.91;54.65;99881.59;5054733;28;20019;-76
2023/11/09 02:53:32;;;;;;;;;;;;;;;12.84;54.33;99870.91;5054644;28;19952;-76
2023/11/09 02:55:57;;;;;;;;;;;;;;;12.85;54.53;99874.38;5054430;28;19919;-77
2023/11/09 02:58:22;;;;;;;;;;;;;;;12.78;52.71;99879.59;5036823;28;19996;-76
2023/11/09 03:00:49;;;;;;;;;;;;;;;12.79;54.29;99878.59;5054627;28;19919;-77
2023/11/09 03:03:14;;;;;;;;;;;;;;;12.71;53.08;99881.34;5054615;28;19963;-76
2023/11/09 03:05:39;;;;;;;;;;;;;;;12.73;53.13;99885.44;5036671;28;19952;-77
2023/11/09 03:08:04;;;;;;;;;;;;;;;12.68;53.29;99890.47;5054428;28;19964;-77
2023/11/09 03:10:30;;;;;;;;;;;;;;;12.64;53.73;99897.13;5054363;28;19912;-76
2023/11/09 03:12:55;;;;;;;;;;;;;;;12.67;53.96;99894.13;5054313;28;19917;-76
2023/11/09 03:15:22;;;;;;;;;;;;;;;12.65;52.91;99892.66;5054224;28;19912;-76
2023/11/09 03:17:47;;;;;;;;;;;;;;;12.62;53.96;99896.47;5054608;28;19920;-77
2023/11/09 03:20:12;;;;;;;;;;;;;;;12.53;53.22;99894.09;5054364;28;19913;-76
2023/11/09 03:22:39;;;;;;;;;;;;;;;12.52;53.52;99900.38;5054496;28;19914;-77
2023/11/09 03:25:04;;;;;;;;;;;;;;;12.54;54.06;99901.84;5054547;28;20453;-77
2023/11/09 03:27:30;;;;;;;;;;;;;;;12.52;52.97;99906.50;5054271;28;20027;-76
2023/11/09 03:29:55;;;;;;;;;;;;;;;12.54;53.11;99908.97;5052907;28;19917;-76
2023/11/09 03:32:22;;;;;;;;;;;;;;;12.50;52.91;99919.09;5053721;28;19921;-76
2023/11/09 03:34:48;;;;;;;;;;;;;;;12.52;53.48;99919.75;5053772;28;20302;-76
2023/11/09 03:37:13;;;;;;;;;;;;;;;12.53;53.33;99923.22;5053887;28;19967;-76
2023/11/09 03:39:38;;;;;;;;;;;;;;;12.54;53.55;99924.88;5036431;28;19935;-77
2023/11/09 03:42:05;;;;;;;;;;;;;;;12.50;53.62;99924.41;5036231;28;19913;-76
2023/11/09 03:44:35;;;;;;;;;;;;;;;12.49;52.94;99914.81;5053847;28;20386;-76
2023/11/09 03:47:00;;;;;;;;;;;;;;;12.50;54.33;99911.16;5054139;28;19913;-76
2023/11/09 03:49:26;;;;;;;;;;;;;;;12.48;53.73;99909.69;5053474;28;19974;-77
2023/11/09 03:51:51;;;;;;;;;;;;;;;12.47;54.08;99910.69;5035450;28;19920;-76
2023/11/09 03:54:16;;;;;;;;;;;;;;;12.39;53.54;99911.59;5053391;28;19978;-76
2023/11/09 03:56:42;;;;;;;;;;;;;;;12.39;53.00;99914.25;5053555;28;20446;-77
2023/11/09 03:59:07;;;;;;;;;;;;;;;12.28;53.07;99920.81;5035501;28;19913;-76
2023/11/09 04:01:33;;;;;;;;;;;;;;;12.23;53.81;99925.81;5052005;28;19913;-77
2023/11/09 04:03:58;;;;;;;;;;;;;;;12.27;52.93;99937.69;5053042;28;19927;-76
2023/11/09 04:06:23;;;;;;;;;;;;;;;12.26;53.21;99941.34;5035947;28;19917;-75
2023/11/09 04:08:49;;;;;;;;;;;;;;;12.29;53.00;99942.81;5054381;28;20374;-76
2023/11/09 04:11:14;;;;;;;;;;;;;;;12.34;53.44;99940.44;5053039;28;19967;-76
2023/11/09 04:13:40;;;;;;;;;;;;;;;12.38;53.36;99945.22;5053022;28;19917;-77
2023/11/09 04:16:05;;;;;;;;;;;;;;;12.41;53.58;99952.78;5052973;28;19912;-76
2023/11/09 04:18:33;;;;;;;;;;;;;;;12.45;54.08;99961.19;5053168;28;20027;-76
2023/11/09 04:20:58;;;;;;;;;;;;;;;12.46;53.55;99959.38;5053120;28;19955;-76
2023/11/09 04:23:23;;;;;;;;;;;;;;;12.46;53.95;99962.84;5053150;28;20362;-77
2023/11/09 04:25:51;;;;;;;;;;;;;;;12.42;53.90;99964.22;5053204;28;20342;-77
2023/11/09 04:28:17;;;;;;;;;;;;;;;12.37;54.15;99970.03;5053069;28;20368;-77
2023/11/09 04:30:42;;;;;;;;;;;;;;;12.32;54.26;99971.59;5053058;28;19913;-76
2023/11/09 04:33:09;;;;;;;;;;;;;;;12.29;54.38;99978.06;5052778;28;19917;-76
2023/11/09 04:35:39;;;;;;;;;;;;;;;12.26;54.46;99977.59;5052669;28;19940;-76
2023/11/09 04:38:04;;;;;;;;;;;;;;;12.24;55.14;99971.66;5052578;28;20054;-76
2023/11/09 04:40:30;;;;;;;;;;;;;;;12.21;54.95;99980.78;5052620;28;19966;-76
2023/11/09 04:42:58;;;;;;;;;;;;;;;12.18;54.56;99986.44;5052198;28;19923;-77
2023/11/09 04:45:25;;;;;;;;;;;;;;;12.14;54.84;99981.66;5052549;28;20002;-76
2023/11/09 04:47:55;;;;;;;;;;;;;;;12.14;55.22;99994.91;5052595;28;19913;-77
2023/11/09 04:50:28;;;;;;;;;;;;;;;12.07;55.04;100000.91;5052500;28;19919;-76
2023/11/09 04:53:03;;;;;;;;;;;;;;;12.04;54.93;100006.53;5052233;28;20372;-77
2023/11/09 04:55:32;;;;;;;;;;;;;;;12.03;54.95;100009.38;5052273;28;20329;-76
2023/11/09 05:08:53;;;;;;;;;;;;;;;11.94;54.82;100018.34;5052464;28;19920;-76
2023/11/09 05:11:18;;;;;;;;;;;;;;;11.87;54.34;100015.56;5052175;28;19917;-77
2023/11/09 05:13:44;;;;;;;;;;;;;;;11.85;54.40;100020.19;5052062;28;19923;-78
2023/11/09 05:16:09;;;;;;;;;;;;;;;11.83;54.94;100018.72;5052155;28;19916;-77
2023/11/09 05:18:35;;;;;;;;;;;;;;;11.79;54.71;100020.91;5052131;28;19909;-77
2023/11/09 05:21:02;;;;;;;;;;;;;;;11.78;53.74;100027.19;5051908;28;19999;-77
2023/11/09 05:23:27;;;;;;;;;;;;;;;11.68;54.24;100027.38;5051988;28;20372;-76
2023/11/09 05:25:52;;;;;;;;;;;;;;;11.73;55.44;100029.50;5051846;28;19963;-77
2023/11/09 05:28:18;;;;;;;;;;;;;;;11.76;54.15;100032.63;5051682;28;19924;-76
2023/11/09 05:30:44;;;;;;;;;;;;;;;11.77;53.82;100033.44;5051654;28;19966;-77
2023/11/09 05:33:10;;;;;;;;;;;;;;;11.78;54.88;100037.75;5033812;28;19920;-76
2023/11/09 05:35:35;;;;;;;;;;;;;;;11.81;55.06;100040.06;5051921;28;19917;-74
2023/11/09 05:38:01;;;;;;;;;;;;;;;11.76;54.68;100042.38;5051696;28;20004;-76
2023/11/09 05:40:26;;;;;;;;;;;;;;;11.67;55.10;100043.41;5051735;28;19917;-75
2023/11/09 05:42:52;;;;;;;;;;;;;;;11.63;55.34;100047.41;5051692;28;20035;-77
2023/11/09 05:45:17;;;;;;;;;;;;;;;11.56;54.60;100046.44;5051628;28;20360;-76
2023/11/09 05:47:42;;;;;;;;;;;;;;;11.57;56.24;100054.19;5051557;28;19913;-74
2023/11/09 05:50:08;;;;;;;;;;;;;;;11.53;54.99;100049.44;5051738;28;20005;-76
2023/11/09 05:52:33;;;;;;;;;;;;;;;11.58;55.65;100058.50;5051562;28;19916;-76
2023/11/09 05:54:59;;;;;;;;;;;;;;;11.64;54.66;100068.38;5055458;28;19935;-76
2023/11/09 05:57:24;;;;;;;;;;;;;;;11.65;55.43;100079.78;5056259;28;19917;-76
2023/11/09 05:59:50;;;;;;;;;;;;;;;11.71;55.20;100076.47;5056055;28;19912;-76
2023/11/09 06:02:15;;;;;;;;;;;;;;;11.71;55.39;100079.09;5055642;28;19917;-76
2023/11/09 06:04:42;;;;;;;;;;;;;;;11.68;55.01;100085.56;5055415;28;19920;-77
2023/11/09 06:07:11;;;;;;;;;;;;;;;11.70;55.61;100088.03;5055613;28;19920;-75
2023/11/09 06:09:38;;;;;;;;;;;;;;;11.69;55.00;100086.38;5055314;28;20005;-76
2023/11/09 06:12:05;;;;;;;;;;;;;;;11.73;55.30;100098.28;5055243;28;19928;-76
2023/11/09 06:14:31;;;;;;;;;;;;;;;11.77;55.43;100094.28;5055166;28;19913;-76
2023/11/09 06:16:57;;;;;;;;;;;;;;;11.80;54.58;100099.28;5036988;28;19912;-76
2023/11/09 06:19:22;;;;;;;;;;;;;;;11.71;55.50;100106.38;5074092;28;20030;-76
2023/11/09 06:21:51;;;;;;;;;;;;;;;11.62;55.55;100102.13;5057218;28;19917;-76
2023/11/09 06:24:17;;;;;;;;;;;;;;;11.69;55.78;100107.56;5056987;28;19918;-76
2023/11/09 06:26:43;;;;;;;;;;;;;;;11.67;55.54;100117.47;5048433;28;19920;-77
2023/11/09 06:29:08;;;;;;;;;;;;;;;11.68;54.99;100108.53;5055056;28;19971;-76
2023/11/09 06:31:34;;;;;;;;;;;;;;;11.59;55.04;100106.94;5057072;28;20402;-76
2023/11/09 06:33:59;;;;;;;;;;;;;;;11.61;54.57;100116.34;5065038;28;20305;-75
2023/11/09 06:36:27;;;;;;;;;;;;;;;11.63;55.31;100122.28;5055796;28;19931;-76
2023/11/09 06:38:52;;;;;;;;;;;;;;;11.71;55.59;100124.06;5073999;28;19916;-75
2023/11/09 06:41:18;;;;;;;;;;;;;;;11.76;55.58;100121.75;5056870;28;20025;-77
2023/11/09 06:43:43;;;;;;;;;;;;;;;11.82;55.47;100118.44;5042236;28;19917;-76
2023/11/09 06:46:08;;;;;;;;;;;;;;;11.84;54.88;100120.91;5054747;28;19999;-75
2023/11/09 06:48:34;;;;;;;;;;;;;;;11.80;55.37;100128.38;5053410;28;19913;-77
2023/11/09 06:50:59;;;;;;;;;;;;;;;11.85;55.15;100127.84;5054693;28;19919;-76
2023/11/09 06:53:25;;;;;;;;;;;;;;;11.85;54.93;100133.97;5062973;28;19954;-75
2023/11/09 06:55:51;;;;;;;;;;;;;;;11.81;55.24;100124.72;5073949;28;19913;-76
2023/11/09 06:58:17;;;;;;;;;;;;;;;11.90;55.32;100131.66;5054487;28;19935;-77
2023/11/09 07:00:42;;;;;;;;;;;;;;;11.98;55.14;100131.63;5054441;28;19988;-77
2023/11/09 07:03:09;;;;;;;;;;;;;;;12.06;54.94;100133.41;5066908;28;19978;-77
2023/11/09 07:05:35;;;;;;;;;;;;;;;12.07;54.20;100130.59;5074005;28;19919;-77
2023/11/09 07:08:00;;;;;;;;;;;;;;;12.17;54.48;100135.66;5074380;28;20003;-75
2023/11/09 07:10:25;;;;;;;;;;;;;;;12.26;54.03;100134.63;5068134;28;19920;-77
2023/11/09 07:12:50;;;;;;;;;;;;;;;12.34;53.91;100131.94;5071939;28;19924;-75
2023/11/09 07:15:16;;;;;;;;;;;;;;;12.40;53.55;100131.22;5074323;28;19912;-76
2023/11/09 07:17:41;;;;;;;;;;;;;;;12.50;53.79;100136.28;5089852;28;20313;-76
2023/11/09 07:20:08;;;;;;;;;;;;;;;12.58;52.99;100138.88;5056292;28;19969;-77
2023/11/09 07:22:33;;;;;;;;;;;;;;;12.60;51.56;100136.88;5053952;28;19909;-75
2023/11/09 07:25:00;;;;;;;;;;;;;;;12.67;52.02;100139.69;5053847;28;19919;-76
2023/11/09 07:27:25;;;;;;;;;;;;;;;12.70;51.97;100142.78;5069233;28;19913;-76
2023/11/09 07:29:51;;;;;;;;;;;;;;;12.72;52.25;100142.63;5053945;28;19920;-76
2023/11/09 07:32:16;;;;;;;;;;;;;;;12.78;52.24;100139.25;5071912;28;19924;-76
2023/11/09 07:34:42;;;;;;;;;;;;;;;12.83;51.32;100125.47;5073933;28;19912;-77
2023/11/09 07:37:07;;;;;;;;;;;;;;;12.91;51.19;100130.72;5070344;28;19983;-77
2023/11/09 07:39:33;;;;;;;;;;;;;;;12.98;51.53;100142.25;5052086;28;19913;-76
2023/11/09 07:41:59;;;;;;;;;;;;;;;13.03;51.77;100137.22;5053488;28;19912;-78
2023/11/09 07:44:26;;;;;;;;;;;;;;;13.05;51.40;100133.41;5059433;28;19967;-77
2023/11/09 07:46:51;;;;;;;;;;;;;;;13.14;50.86;100130.66;5073582;28;19912;-76
2023/11/09 07:49:17;;;;;;;;;;;;;;;13.20;51.13;100129.97;5073668;28;19912;-77
2023/11/09 07:51:43;;;;;;;;;;;;;;;13.27;51.08;100131.72;5069140;28;20378;-77
2023/11/09 07:54:09;;;;;;;;;;;;;;;13.32;50.17;100134.66;5058623;28;19916;-77
2023/11/09 07:56:35;;;;;;;;;;;;;;;13.37;50.77;100128.81;5061951;28;19913;-77
2023/11/09 07:59:00;;;;;;;;;;;;;;;13.39;50.25;100136.63;5070281;28;19917;-76
2023/11/09 08:01:25;;;;;;;;;;;;;;;13.42;50.61;100130.94;5076180;28;19916;-77
2023/11/09 08:03:51;;;;;;;;;;;;;;;13.44;49.69;100142.19;5059595;28;19943;-76
2023/11/09 08:06:17;;;;;;;;;;;;;;;13.42;50.32;100146.88;5057778;28;19919;-77
2023/11/09 08:08:44;;;;;;;;;;;;;;;13.45;51.68;100154.47;5073124;28;19991;-77
2023/11/09 08:11:10;;;;;;;;;;;;;;;13.42;50.45;100149.50;5057066;28;20003;-77
2023/11/09 08:13:36;;;;;;;;;;;;;;;13.46;50.30;100156.09;5073331;28;19963;-77
2023/11/09 08:16:02;;;;;;;;;;;;;;;13.45;50.66;100160.59;5072491;28;19912;-76
2023/11/09 08:18:28;;;;;;;;;;;;;;;13.38;50.30;100153.50;5072875;28;19913;-77
2023/11/09 08:20:53;;;;;;;;;;;;;;;13.35;48.90;100158.16;5072618;28;20347;-77
2023/11/09 08:23:18;;;;;;;;;;;;;;;13.33;48.84;100154.88;5057099;28;19939;-77
2023/11/09 08:25:44;;;;;;;;;;;;;;;13.40;50.18;100162.13;5069552;28;20626;-78
2023/11/09 08:28:09;;;;;;;;;;;;;;;13.42;49.44;100163.59;5061307;28;19982;-77
2023/11/09 08:30:35;;;;;;;;;;;;;;;13.52;49.51;100164.16;5054700;28;20378;-77
2023/11/09 08:33:00;;;;;;;;;;;;;;;13.62;49.25;100151.44;5059007;28;19925;-77
2023/11/09 08:35:26;;;;;;;;;;;;;;;13.67;49.33;100154.38;5053924;28;20393;-77
2023/11/09 08:37:55;;;;;;;;;;;;;;;13.66;49.77;100159.88;5052492;28;20362;-77
2023/11/09 08:40:29;;;;;;;;;;;;;;;13.65;49.33;100166.19;5070643;28;19916;-77
2023/11/09 08:42:55;;;;;;;;;;;;;;;13.72;49.49;100167.09;5072345;28;19956;-77
2023/11/09 08:45:27;;;;;;;;;;;;;;;13.78;48.91;100166.38;5072382;28;19919;-78
2023/11/09 08:47:53;;;;;;;;;;;;;;;13.80;48.60;100174.97;5064377;28;19916;-76
2023/11/09 08:50:20;;;;;;;;;;;;;;;13.79;47.16;100173.31;5071038;28;19920;-77
2023/11/09 08:52:46;;;;;;;;;;;;;;;13.83;48.27;100179.91;5069310;28;19935;-77
2023/11/09 08:55:12;;;;;;;;;;;;;;;13.91;49.27;100178.97;5053640;28;20007;-77
2023/11/09 08:57:41;;;;;;;;;;;;;;;14.00;49.33;100184.00;5052078;28;19917;-77
2023/11/09 09:00:11;;;;;;;;;;;;;;;13.44;48.70;100099.75;5052198;28;20378;-76
2023/11/09 09:02:39;;;;;;;;;;;;;;;14.06;47.23;100176.31;5039419;28;19920;-78
2023/11/09 09:05:05;;;;;;;;;;;;;;;14.09;48.63;100182.09;5090865;28;19916;-77
2023/11/09 09:07:30;;;;;;;;;;;;;;;14.24;50.16;100182.09;5080370;28;20033;-76
2023/11/09 09:09:55;;;;;;;;;;;;;;;14.32;48.75;100184.63;5076427;28;19912;-78
2023/11/09 09:12:20;;;;;;;;;;;;;;;14.45;48.12;100181.34;5071779;28;19920;-77
2023/11/09 09:14:47;;;;;;;;;;;;;;;14.55;48.04;100177.38;5071723;28;19916;-77
2023/11/09 09:17:13;;;;;;;;;;;;;;;14.64;47.79;100180.72;5071693;28;19909;-77
2023/11/09 09:19:41;;;;;;;;;;;;;;;14.81;48.17;100179.47;5071720;28;19973;-77
2023/11/09 09:22:07;;;;;;;;;;;;;;;14.78;46.86;100177.19;5053866;28;20342;-77
2023/11/09 09:24:32;;;;;;;;;;;;;;;14.79;46.31;100172.69;5071827;28;19935;-76
2023/11/09 09:26:58;;;;;;;;;;;;;;;14.74;47.21;100172.44;5070416;28;20373;-76
2023/11/09 09:29:24;;;;;;;;;;;;;;;14.83;48.41;100169.47;5071745;28;19912;-77
2023/11/09 09:31:50;;;;;;;;;;;;;;;14.96;48.06;100163.47;5087553;28;19916;-77
2023/11/09 09:34:21;;;;;;;;;;;;;;;15.14;48.98;100168.34;5091853;28;19923;-77
2023/11/09 09:36:47;;;;;;;;;;;;;;;15.16;47.48;100164.47;5090394;28;19912;-77
2023/11/09 09:39:14;;;;;;;;;;;;;;;15.21;48.42;100159.38;5073606;28;20011;-78
2023/11/09 09:41:50;;;;;;;;;;;;;;;15.31;47.19;100163.53;5079819;28;20015;-78
2023/11/09 09:44:16;;;;;;;;;;;;;;;15.31;47.67;100159.03;5091030;28;19913;-77
2023/11/09 09:46:42;;;;;;;;;;;;;;;15.39;46.80;100158.91;5086573;28;19916;-76
2023/11/09 09:49:10;;;;;;;;;;;;;;;15.45;46.31;100155.47;5071251;28;20052;-77
2023/11/09 09:51:37;;;;;;;;;;;;;;;15.51;46.72;100156.53;5071090;28;19935;-77
2023/11/09 09:54:03;;;;;;;;;;;;;;;15.62;47.97;100152.56;5070825;28;19917;-76
2023/11/09 09:56:29;;;;;;;;;;;;;;;15.64;45.89;100147.84;5091348;28;19923;-78
2023/11/09 09:58:56;;;;;;;;;;;;;;;15.02;45.51;100059.00;5076119;28;19921;-78
2023/11/09 10:01:21;;;;;;;;;;;;;;;15.75;45.30;100152.63;5071706;28;20366;-76
2023/11/09 10:03:48;;;;;;;;;;;;;;;15.88;45.76;100152.69;5083614;28;19921;-77
2023/11/09 10:06:14;;;;;;;;;;;;;;;15.87;42.36;100143.06;5071428;28;20297;-76
2023/11/09 10:08:40;;;;;;;;;;;;;;;15.93;38.36;100141.44;5076228;28;19916;-77
2023/11/09 10:11:05;;;;;;;;;;;;;;;15.99;40.82;100141.47;5089461;28;19916;-76
2023/11/09 10:13:33;;;;;;;;;;;;;;;16.08;43.44;100131.47;5064139;28;20444;-76
2023/11/09 10:15:59;;;;;;;;;;;;;;;16.24;45.58;100132.97;5071228;28;19918;-76
2023/11/09 10:18:26;;;;;;;;;;;;;;;16.25;43.13;100135.44;5083862;28;19916;-76
2023/11/09 10:20:57;;;;;;;;;;;;;;;16.29;42.18;100134.00;5091436;28;19912;-76
2023/11/09 10:23:23;;;;;;;;;;;;;;;16.28;41.35;100128.88;5090479;28;19951;-76
2023/11/09 10:25:49;;;;;;;;;;;;;;;16.30;45.20;100127.66;5091393;28;20425;-76
2023/11/09 10:28:14;;;;;;;;;;;;;;;16.33;42.85;100129.91;5091372;28;19912;-77
2023/11/09 10:30:41;;;;;;;;;;;;;;;16.39;39.81;100137.13;5082913;28;19923;-76
2023/11/09 10:33:07;;;;;;;;;;;;;;;16.43;40.47;100137.56;5082699;28;19955;-75
2023/11/09 10:35:33;;;;;;;;;;;;;;;16.48;43.10;100129.78;5074616;28;20300;-78
2023/11/09 10:38:01;;;;;;;;;;;;;;;16.44;42.85;100129.34;5084390;28;19916;-78
2023/11/09 10:40:30;;;;;;;;;;;;;;;16.46;39.93;100124.66;5090676;28;20299;-75
2023/11/09 10:43:00;;;;;;;;;;;;;;;16.49;41.06;100121.56;5075983;28;19916;-75
2023/11/09 10:45:25;;;;;;;;;;;;;;;16.51;43.59;100119.53;5085761;28;19957;-75
2023/11/09 10:47:52;;;;;;;;;;;;;;;16.53;43.92;100124.66;5089604;28;20064;-76
2023/11/09 10:50:21;;;;;;;;;;;;;;;16.53;41.87;100122.00;5093468;28;19991;-77
2023/11/09 10:52:49;;;;;;;;;;;;;;;16.49;39.89;100123.41;5094749;28;20377;-76
2023/11/09 10:55:16;;;;;;;;;;;;;;;16.46;37.39;100116.66;5082080;28;19969;-76
2023/11/09 10:57:43;;;;;;;;;;;;;;;16.41;39.57;100112.94;5065005;28;19916;-75
2023/11/09 11:00:11;;;;;;;;;;;;;;;16.36;39.31;100120.72;5081282;28;19971;-76
2023/11/09 11:02:41;;;;;;;;;;;;;;;16.30;39.20;100119.66;5074101;28;19912;-76
2023/11/09 11:05:07;;;;;;;;;;;;;;;16.28;38.86;100116.38;5074202;28;20389;-76
2023/11/09 11:07:34;;;;;;;;;;;;;;;16.28;40.08;100119.03;5081260;28;19923;-77
2023/11/09 11:10:01;;;;;;;;;;;;;;;16.30;39.69;100113.50;5076160;28;19912;-78
2023/11/09 11:12:29;;;;;;;;;;;;;;;16.31;40.15;100113.31;5094279;28;19948;-77
2023/11/09 11:14:55;;;;;;;;;;;;;;;16.29;36.74;100117.19;5093315;28;20446;-77
2023/11/09 11:17:20;;;;;;;;;;;;;;;16.24;36.39;100112.47;5094251;28;20304;-77
2023/11/09 11:20:09;;;;;;;;;;;;;;;16.20;38.96;100120.03;5094006;28;19916;-77
2023/11/09 11:22:40;;;;;;;;;;;;;;;16.18;36.91;100116.75;5083260;28;19913;-77
2023/11/09 11:25:19;;;;;;;;;;;;;;;16.15;39.79;100113.66;5078457;28;19920;-77
2023/11/09 11:27:57;;;;;;;;;;;;;;;16.16;38.80;100117.97;5073884;28;20003;-75
2023/11/09 11:30:25;;;;;;;;;;;;;;;16.16;38.16;100116.13;5073922;28;19995;-77
2023/11/09 11:32:52;;;;;;;;;;;;;;;16.19;38.89;100117.56;5073474;28;20061;-77
2023/11/09 11:35:30;;;;;;;;;;;;;;;16.22;39.87;100119.84;5074636;28;19919;-77
2023/11/09 11:38:04;;;;;;;;;;;;;;;16.25;38.76;100116.78;5073833;28;20306;-78
2023/11/09 11:40:38;;;;;;;;;;;;;;;16.26;37.63;100113.09;5073494;28;19913;-77
2023/11/09 11:43:05;;;;;;;;;;;;;;;16.27;39.09;100114.72;5073661;28;19913;-75
2023/11/09 11:45:30;;;;;;;;;;;;;;;16.23;38.44;100118.00;5073094;28;19999;-77
2023/11/09 11:48:01;;;;;;;;;;;;;;;16.25;41.47;100121.28;5075086;28;19966;-78
2023/11/09 11:50:27;;;;;;;;;;;;;;;16.25;39.84;100110.63;5074980;28;20016;-77
2023/11/09 11:53:00;;;;;;;;;;;;;;;16.22;38.80;100106.50;5092765;28;20003;-77
2023/11/09 11:55:32;;;;;;;;;;;;;;;16.21;38.30;100102.22;5092443;28;20386;-78
2023/11/09 11:58:06;;;;;;;;;;;;;;;16.23;38.86;100108.16;5093570;28;20309;-75
2023/11/09 12:00:40;;;;;;;;;;;;;;;16.24;37.88;100096.47;5092341;28;19931;-78
2023/11/09 12:03:09;;;;;;;;;;;;;;;16.25;38.72;100103.44;5082131;28;19928;-77
2023/11/09 12:05:35;;;;;;;;;;;;;;;16.24;41.06;100099.16;5079691;28;19916;-78
2023/11/09 12:08:01;;;;;;;;;;;;;;;16.23;39.67;100091.34;5093404;28;19920;-77
2023/11/09 12:10:27;;;;;;;;;;;;;;;16.27;40.66;100096.06;5083226;28;19913;-77
2023/11/09 12:12:56;;;;;;;;;;;;;;;16.27;39.78;100096.06;5072822;28;20469;-77
2023/11/09 12:15:27;;;;;;;;;;;;;;;16.28;37.81;100100.38;5073039;28;19963;-77
2023/11/09 12:17:55;;;;;;;;;;;;;;;16.29;39.73;100101.22;5076216;28;20323;-77
2023/11/09 12:20:21;;;;;;;;;;;;;;;16.27;40.75;100098.75;5062399;28;20380;-77
2023/11/09 12:22:49;;;;;;;;;;;;;;;16.27;38.95;100092.59;5073471;28;19924;-77
2023/11/09 12:25:14;;;;;;;;;;;;;;;16.26;37.77;100101.59;5071253;28;19913;-77
2023/11/09 12:27:41;;;;;;;;;;;;;;;16.27;40.96;100092.59;5072801;28;19920;-77
2023/11/09 12:30:07;;;;;;;;;;;;;;;16.24;38.08;100093.81;5072465;28;19916;-77
2023/11/09 12:32:33;;;;;;;;;;;;;;;16.23;37.48;100092.16;5072540;28;19959;-75
2023/11/09 12:35:00;;;;;;;;;;;;;;;16.24;38.83;100096.47;5074240;28;19955;-77
2023/11/09 12:37:31;;;;;;;;;;;;;;;16.25;39.45;100099.97;5091507;28;19950;-75
2023/11/09 12:39:59;;;;;;;;;;;;;;;16.26;38.42;100096.28;5092717;28;20323;-77
2023/11/09 12:42:25;;;;;;;;;;;;;;;16.26;37.70;100094.44;5092543;28;20289;-76
2023/11/09 12:44:53;;;;;;;;;;;;;;;16.27;39.02;100101.41;5079553;28;19924;-76
2023/11/09 12:47:20;;;;;;;;;;;;;;;16.30;40.46;100106.34;5072007;28;20389;-77